Time;durP1;ratioP1;P1;durP2;ratioP2;P2;SDS_P1;SDS_P2;PMS_P1;PMS_P2;Temp;Humidity;BMP_temperature;BMP_pressure;BME280_temperature;BME280_humidity;BME280_pressure;Samples;Min_cycle;Max_cycle;Signal;HPM_P1;HPM_P2
2022/12/27 00:01:54;;;;;;;7.47;1.42;;;6.30;98.70;;;;;;5106885;28;20085;-56
2022/12/27 00:04:19;;;;;;;5.57;1.50;;;6.30;99.30;;;;;;5086993;28;20486;-57
2022/12/27 00:06:45;;;;;;;6.43;1.48;;;6.30;99.50;;;;;;5081464;28;20178;-57
2022/12/27 00:09:10;;;;;;;3.53;1.00;;;6.30;99.00;;;;;;5096964;28;20047;-57
2022/12/27 00:11:37;;;;;;;9.98;1.55;;;6.30;99.30;;;;;;5081062;28;20012;-58
2022/12/27 00:14:04;;;;;;;8.82;1.38;;;6.20;99.70;;;;;;5084036;28;20032;-58
2022/12/27 00:16:30;;;;;;;10.52;1.95;;;6.20;96.00;;;;;;5097271;28;20523;-57
2022/12/27 00:18:56;;;;;;;7.68;1.20;;;6.20;97.90;;;;;;5106784;28;20106;-58
2022/12/27 00:21:22;;;;;;;5.05;1.50;;;6.20;98.40;;;;;;5084000;28;20032;-56
2022/12/27 00:23:51;;;;;;;11.82;1.25;;;6.20;98.50;;;;;;5105903;28;20115;-58
2022/12/27 00:26:19;;;;;;;7.63;1.40;;;6.10;99.20;;;;;;5084989;28;20086;-56
2022/12/27 00:28:45;;;;;;;6.50;1.20;;;6.10;99.90;;;;;;5089702;28;20622;-58
2022/12/27 00:31:11;;;;;;;10.32;1.67;;;6.10;99.10;;;;;;5088577;28;20024;-58
2022/12/27 00:33:38;;;;;;;5.22;1.55;;;6.10;97.50;;;;;;5077211;28;20071;-58
2022/12/27 00:36:06;;;;;;;5.32;1.17;;;6.10;98.80;;;;;;5108347;28;20033;-59
2022/12/27 00:38:32;;;;;;;5.40;1.35;;;6.00;99.10;;;;;;5087119;28;20487;-57
2022/12/27 00:40:58;;;;;;;6.18;1.35;;;6.00;99.70;;;;;;5109511;28;20041;-58
2022/12/27 00:43:23;;;;;;;6.25;1.38;;;5.90;99.40;;;;;;5083073;28;20027;-58
2022/12/27 00:45:49;;;;;;;6.10;1.30;;;5.80;99.90;;;;;;5092155;28;20034;-58
2022/12/27 00:48:14;;;;;;;3.28;1.02;;;5.70;99.90;;;;;;5089943;28;20419;-57
2022/12/27 00:50:41;;;;;;;7.70;1.40;;;5.70;99.90;;;;;;5109268;28;20032;-55
2022/12/27 00:53:07;;;;;;;6.30;1.63;;;5.60;99.90;;;;;;5088234;28;20040;-58
2022/12/27 00:55:33;;;;;;;5.97;1.10;;;5.50;99.90;;;;;;5096197;28;20032;-57
2022/12/27 00:57:58;;;;;;;7.47;1.40;;;5.40;99.90;;;;;;5109846;28;20065;-58
2022/12/27 01:00:24;;;;;;;4.72;1.10;;;5.40;99.90;;;;;;5089806;28;20649;-57
2022/12/27 01:02:49;;;;;;;4.22;1.23;;;5.30;99.90;;;;;;5088350;28;20032;-57
2022/12/27 01:05:15;;;;;;;5.70;1.50;;;5.20;99.90;;;;;;5097178;28;20059;-58
2022/12/27 01:07:41;;;;;;;7.88;1.83;;;5.20;99.90;;;;;;5091226;28;20028;-56
2022/12/27 01:10:06;;;;;;;7.32;1.65;;;5.20;99.90;;;;;;5111289;28;20532;-57
2022/12/27 01:12:34;;;;;;;7.40;1.65;;;5.20;99.90;;;;;;5090455;28;20097;-58
2022/12/27 01:15:00;;;;;;;10.88;1.50;;;5.20;99.90;;;;;;5111679;28;20523;-55
2022/12/27 01:17:25;;;;;;;6.55;1.52;;;5.10;99.90;;;;;;5090360;28;20119;-58
2022/12/27 01:19:50;;;;;;;2.80;1.17;;;5.10;99.90;;;;;;5111199;28;20040;-57
2022/12/27 01:22:16;;;;;;;7.03;1.35;;;5.10;99.90;;;;;;5090380;28;20028;-57
2022/12/27 01:24:42;;;;;;;5.63;1.27;;;5.00;99.90;;;;;;5107731;28;20550;-54
2022/12/27 01:27:07;;;;;;;7.38;1.45;;;5.00;99.90;;;;;;5089618;28;20031;-52
2022/12/27 01:29:32;;;;;;;8.93;1.60;;;4.90;99.90;;;;;;5111075;28;20039;-57
2022/12/27 01:31:58;;;;;;;6.05;1.40;;;4.80;99.90;;;;;;5090081;28;20040;-56
2022/12/27 01:34:23;;;;;;;5.88;1.15;;;4.80;99.90;;;;;;5111034;28;20169;-57
2022/12/27 01:36:49;;;;;;;8.27;1.50;;;4.70;99.90;;;;;;5100789;28;20088;-57
2022/12/27 01:39:15;;;;;;;11.10;2.35;;;4.60;99.90;;;;;;5091817;28;20020;-55
2022/12/27 01:44:39;;;;;;;7.00;1.65;;;4.50;99.90;;;;;;5072871;28;20440;-54
2022/12/27 01:47:32;;;;;;;6.88;1.08;;;4.50;99.90;;;;;;5088004;28;20525;-58
2022/12/27 01:50:29;;;;;;;3.97;1.45;;;4.50;99.90;;;;;;5070725;28;20115;-56
2022/12/27 01:53:18;;;;;;;7.50;1.52;;;4.40;99.90;;;;;;5089206;28;20036;-56
2022/12/27 01:55:54;;;;;;;5.80;1.88;;;4.40;99.90;;;;;;5072700;28;20039;-56
2022/12/27 01:58:26;;;;;;;;;;;4.30;99.90;;;;;;5111907;28;20099;-58
2022/12/27 02:00:51;;;;;;;2.88;1.05;;;4.30;99.90;;;;;;5092397;28;19916;-56
2022/12/27 02:03:23;;;;;;;9.20;1.42;;;4.30;99.90;;;;;;5111280;28;20064;-58
2022/12/27 02:05:50;;;;;;;4.70;1.17;;;4.20;99.90;;;;;;5088937;28;20592;-57
2022/12/27 02:08:37;;;;;;;7.88;1.30;;;4.20;99.90;;;;;;5111034;28;20164;-58
2022/12/27 02:11:04;;;;;;;6.30;1.33;;;4.10;99.90;;;;;;5093302;28;20511;-55
2022/12/27 02:13:33;;;;;;;4.20;1.10;;;4.10;99.90;;;;;;5111028;28;20837;-57
2022/12/27 02:15:59;;;;;;;6.32;1.30;;;4.10;99.90;;;;;;5092656;28;20035;-55
2022/12/27 02:18:24;;;;;;;5.35;0.98;;;4.00;99.90;;;;;;5111109;28;20361;-56
2022/12/27 02:21:05;;;;;;;9.60;1.20;;;4.00;99.90;;;;;;5091681;28;20181;-50
2022/12/27 02:26:59;;;;;;;9.90;1.77;;;3.90;99.90;;;;;;5082333;28;20114;-55
2022/12/27 02:29:31;;;;;;;7.63;1.45;;;3.90;99.90;;;;;;5090953;28;20068;-56
2022/12/27 02:32:19;;;;;;;8.13;1.65;;;3.90;99.90;;;;;;5092349;28;20051;-56
2022/12/27 02:35:23;;;;;;;4.50;1.42;;;3.90;99.90;;;;;;5090076;28;20024;-52
2022/12/27 02:38:17;;;;;;;12.23;2.20;;;3.90;99.90;;;;;;5054576;28;20028;-54
2022/12/27 03:03:19;;;;;;;12.30;1.40;;;3.80;99.90;;;;;;5073956;28;20443;-56
2022/12/27 03:09:05;;;;;;;3.45;1.20;;;3.80;99.90;;;;;;5046444;28;20043;-54
2022/12/27 03:17:31;;;;;;;6.03;1.25;;;3.70;99.90;;;;;;5049135;28;20146;-56
2022/12/27 03:25:34;;;;;;;;;;;3.50;99.90;;;;;;5078011;28;20131;-53
2022/12/27 03:33:42;;;;;;;11.50;1.35;;;3.40;99.90;;;;;;5086639;28;20043;-55
2022/12/27 03:39:24;;;;;;;4.60;1.10;;;3.30;99.90;;;;;;5082698;28;20054;-54
2022/12/27 03:44:37;;;;;;;9.00;1.45;;;3.30;99.90;;;;;;5068939;28;20122;-57
2022/12/27 03:47:36;;;;;;;4.38;1.00;;;3.30;99.90;;;;;;5107989;28;20117;-53
2022/12/27 03:50:27;;;;;;;9.52;1.30;;;3.30;99.90;;;;;;5109114;28;20042;-56
2022/12/27 03:52:56;;;;;;;3.63;0.85;;;3.30;99.90;;;;;;5079723;28;20395;-56
2022/12/27 03:55:23;;;;;;;12.73;1.13;;;3.30;99.90;;;;;;5107918;28;20437;-56
2022/12/27 03:57:49;;;;;;;4.30;1.77;;;3.30;99.90;;;;;;5091907;28;20491;-54
2022/12/27 04:00:14;;;;;;;2.70;1.17;;;3.20;99.90;;;;;;5109208;28;20030;-55
2022/12/27 04:02:40;;;;;;;4.88;1.30;;;3.20;99.90;;;;;;5091907;28;20016;-56
2022/12/27 04:05:06;;;;;;;8.15;1.45;;;3.20;99.90;;;;;;5099526;28;20392;-54
2022/12/27 04:07:31;;;;;;;7.82;1.33;;;3.20;99.90;;;;;;5090293;28;20020;-55
2022/12/27 04:34:41;;;;;;;7.85;1.27;;;2.80;99.90;;;;;;5095502;28;20034;-55
2022/12/27 04:37:08;;;;;;;4.03;1.45;;;2.80;99.90;;;;;;5072281;28;20017;-56
2022/12/27 04:39:33;;;;;;;4.35;1.05;;;2.80;99.90;;;;;;5097546;28;20020;-57
2022/12/27 04:56:00;;;;;;;7.63;1.58;;;2.60;99.90;;;;;;5113089;28;20051;-57
2022/12/27 04:58:26;;;;;;;5.30;1.20;;;2.60;99.90;;;;;;5093906;28;20490;-56
2022/12/27 05:03:38;;;;;;;3.80;1.35;;;2.60;99.90;;;;;;5079067;28;20110;-56
2022/12/27 05:06:04;;;;;;;8.90;1.58;;;2.60;99.90;;;;;;5091049;28;20102;-56
2022/12/27 05:13:58;;;;;;;4.38;1.23;;;2.50;99.90;;;;;;5084993;28;20085;-58
2022/12/27 05:16:35;;;;;;;2.22;1.08;;;2.50;99.90;;;;;;5112434;28;20024;-62
2022/12/27 05:19:00;;;;;;;4.38;1.15;;;2.40;99.90;;;;;;5085445;28;20053;-62
2022/12/27 05:21:26;;;;;;;6.90;2.28;;;2.50;99.90;;;;;;5092252;28;20032;-61
2022/12/27 05:26:37;;;;;;;5.60;1.27;;;2.40;99.90;;;;;;5112234;28;20051;-62
2022/12/27 05:29:04;;;;;;;9.55;2.08;;;2.40;99.90;;;;;;5098339;28;20404;-61
2022/12/27 05:31:30;;;;;;;4.95;1.98;;;2.40;99.90;;;;;;5091846;28;20628;-61
2022/12/27 05:33:56;;;;;;;7.30;1.50;;;2.40;99.90;;;;;;5109295;28;20027;-61
2022/12/27 05:36:23;;;;;;;5.63;2.33;;;2.40;99.90;;;;;;5112026;28;20026;-62
2022/12/27 05:38:49;;;;;;;9.73;1.45;;;2.30;99.90;;;;;;5096279;28;20369;-61
2022/12/27 05:41:15;;;;;;;6.47;1.80;;;2.30;99.90;;;;;;5111846;28;20073;-62
2022/12/27 05:43:40;;;;;;;8.00;1.50;;;2.30;99.90;;;;;;5095077;28;20076;-61
2022/12/27 05:46:12;;;;;;;4.25;1.30;;;2.30;99.90;;;;;;5111772;28;20062;-62
2022/12/27 05:48:37;;;;;;;5.78;1.80;;;2.30;99.90;;;;;;5093966;28;20787;-65
2022/12/27 05:51:10;;;;;;;15.27;2.60;;;2.30;99.90;;;;;;5111775;28;20027;-62
2022/12/27 05:53:35;;;;;;;9.18;1.80;;;2.30;99.90;;;;;;5089169;28;20024;-62
2022/12/27 05:56:01;;;;;;;5.40;1.67;;;2.40;99.90;;;;;;5090038;28;20533;-62
2022/12/27 05:58:27;;;;;;;4.80;1.85;;;2.40;99.90;;;;;;5107409;28;20027;-61
2022/12/27 06:00:53;;;;;;;4.72;2.45;;;2.40;99.90;;;;;;5111473;28;20395;-62
2022/12/27 06:03:18;;;;;;;4.63;1.67;;;2.50;99.90;;;;;;5090164;28;20587;-61
2022/12/27 06:05:44;;;;;;;4.35;1.63;;;2.50;99.90;;;;;;5096616;28;20016;-58
2022/12/27 06:08:10;;;;;;;6.70;1.65;;;2.50;99.90;;;;;;5108464;28;20048;-58
2022/12/27 06:10:36;;;;;;;7.18;1.70;;;2.50;99.90;;;;;;5111356;28;20023;-59
2022/12/27 06:13:02;;;;;;;4.32;1.30;;;2.60;99.90;;;;;;5091262;28;20081;-62
2022/12/27 06:15:28;;;;;;;6.53;1.40;;;2.60;99.90;;;;;;5109142;28;20483;-62
2022/12/27 06:17:54;;;;;;;4.47;1.63;;;2.70;99.90;;;;;;5091118;28;20043;-62
2022/12/27 06:20:20;;;;;;;3.13;1.17;;;2.70;99.90;;;;;;5089469;28;20043;-62
2022/12/27 06:22:46;;;;;;;7.78;2.10;;;2.70;99.90;;;;;;5110330;28;20019;-61
2022/12/27 06:25:13;;;;;;;5.80;1.40;;;2.70;99.90;;;;;;5094865;28;20070;-62
2022/12/27 06:27:38;;;;;;;4.72;1.60;;;2.70;99.90;;;;;;5110923;28;20039;-61
2022/12/27 06:30:04;;;;;;;7.35;1.98;;;2.70;99.90;;;;;;5089072;28;20040;-61
2022/12/27 06:32:30;;;;;;;7.90;1.70;;;2.70;99.90;;;;;;5109610;28;20055;-61
2022/12/27 06:34:56;;;;;;;4.97;1.55;;;2.70;99.90;;;;;;5088979;28;20024;-61
2022/12/27 06:37:21;;;;;;;5.85;1.50;;;2.60;99.90;;;;;;5109941;28;20558;-62
2022/12/27 06:39:47;;;;;;;7.15;1.45;;;2.60;99.90;;;;;;5089048;28;20038;-62
2022/12/27 06:42:12;;;;;;;9.43;1.48;;;2.60;99.90;;;;;;5109918;28;20039;-62
2022/12/27 06:44:38;;;;;;;6.85;1.77;;;2.50;99.90;;;;;;5089012;28;20030;-62
2022/12/27 06:47:03;;;;;;;6.13;2.10;;;2.50;99.90;;;;;;5109841;28;20046;-62
2022/12/27 06:49:29;;;;;;;7.35;1.90;;;2.50;99.90;;;;;;5088644;28;20690;-61
2022/12/27 06:51:55;;;;;;;5.68;1.85;;;2.50;99.90;;;;;;5109612;28;20030;-61
2022/12/27 06:54:20;;;;;;;5.57;1.15;;;2.50;99.90;;;;;;5099324;28;20065;-62
2022/12/27 06:56:46;;;;;;;4.30;1.45;;;2.50;99.90;;;;;;5090478;28;20141;-61
2022/12/27 06:59:12;;;;;;;8.43;1.40;;;2.50;99.90;;;;;;5107523;28;20035;-62
2022/12/27 07:01:37;;;;;;;7.88;1.40;;;2.40;99.90;;;;;;5090429;28;20550;-62
2022/12/27 07:04:03;;;;;;;4.55;1.73;;;2.40;99.90;;;;;;5107326;28;20034;-62
2022/12/27 07:06:30;;;;;;;5.32;1.50;;;2.40;99.90;;;;;;5083456;28;20026;-61
2022/12/27 07:08:57;;;;;;;2.58;1.30;;;2.50;99.90;;;;;;5089515;28;20032;-61
2022/12/27 07:11:23;;;;;;;2.67;1.17;;;2.50;99.90;;;;;;5107563;28;20035;-61
2022/12/27 07:13:52;;;;;;;4.97;1.33;;;2.50;99.90;;;;;;5090080;28;20115;-62
2022/12/27 07:16:20;;;;;;;2.42;1.42;;;2.60;99.90;;;;;;5107592;28;20046;-62
2022/12/27 07:18:46;;;;;;;4.60;1.48;;;2.60;99.90;;;;;;5100754;28;20067;-60
2022/12/27 07:21:16;;;;;;;3.97;1.63;;;2.60;99.90;;;;;;5107323;28;20032;-61
2022/12/27 07:23:42;;;;;;;2.47;1.23;;;2.70;99.90;;;;;;5110033;28;20020;-61
2022/12/27 07:26:14;;;;;;;5.32;1.85;;;2.70;99.90;;;;;;5093724;28;20040;-62
2022/12/27 07:28:40;;;;;;;4.10;1.50;;;2.70;99.90;;;;;;5109888;28;20058;-62
2022/12/27 07:31:10;;;;;;;5.85;2.22;;;2.70;99.90;;;;;;5093573;28;20036;-61
2022/12/27 07:33:37;;;;;;;9.82;1.83;;;2.70;99.90;;;;;;5108050;28;20019;-61
2022/12/27 07:36:06;;;;;;;4.55;1.73;;;2.70;99.90;;;;;;5092689;28;20135;-61
2022/12/27 07:38:31;;;;;;;5.25;2.20;;;2.70;99.90;;;;;;5109742;28;20055;-61
2022/12/27 07:40:59;;;;;;;6.55;2.55;;;2.70;99.90;;;;;;5092447;28;20054;-62
2022/12/27 07:43:25;;;;;;;4.15;1.80;;;2.70;99.90;;;;;;5108380;28;20468;-61
2022/12/27 07:45:50;;;;;;;4.75;2.03;;;2.90;99.90;;;;;;5090411;28;20035;-61
2022/12/27 07:48:16;;;;;;;5.38;2.03;;;2.90;99.90;;;;;;5091742;28;20443;-62
2022/12/27 07:50:41;;;;;;;5.28;2.28;;;3.00;99.90;;;;;;5108591;28;20043;-60
2022/12/27 07:53:07;;;;;;;6.47;1.90;;;3.10;99.90;;;;;;5087849;28;20132;-59
2022/12/27 07:55:32;;;;;;;7.15;2.47;;;3.20;99.90;;;;;;5101020;28;20027;-59
2022/12/27 07:57:58;;;;;;;5.80;2.10;;;3.30;99.90;;;;;;5087960;28;20028;-59
2022/12/27 08:00:23;;;;;;;5.32;1.52;;;3.40;99.90;;;;;;5106280;28;20551;-59
2022/12/27 08:02:49;;;;;;;7.57;2.80;;;3.40;99.90;;;;;;5088298;28;20066;-59
2022/12/27 08:05:14;;;;;;;7.05;2.10;;;3.50;99.90;;;;;;5095121;28;20035;-59
2022/12/27 08:07:40;;;;;;;6.03;1.60;;;3.60;99.90;;;;;;5089133;28;20116;-59
2022/12/27 08:10:06;;;;;;;9.50;1.65;;;3.60;99.90;;;;;;5105950;28;20035;-59
2022/12/27 08:12:31;;;;;;;14.75;2.15;;;3.70;99.90;;;;;;5089170;28;20423;-59
2022/12/27 08:14:57;;;;;;;5.40;1.63;;;3.80;99.90;;;;;;5087048;28;20028;-59
2022/12/27 08:17:26;;;;;;;4.40;1.63;;;3.90;99.90;;;;;;5108521;28;20024;-59
2022/12/27 08:19:53;;;;;;;5.30;1.60;;;4.10;99.90;;;;;;5087345;28;20422;-59
2022/12/27 08:22:19;;;;;;;8.70;1.88;;;4.10;99.90;;;;;;5108488;28;20054;-58
2022/12/27 08:24:45;;;;;;;3.55;1.60;;;4.20;99.90;;;;;;5087304;28;20023;-54
2022/12/27 08:27:10;;;;;;;5.55;1.80;;;4.30;99.90;;;;;;5109392;28;20104;-61
2022/12/27 08:29:37;;;;;;;6.15;1.67;;;4.30;99.90;;;;;;5086024;28;20465;-56
2022/12/27 08:32:03;;;;;;;3.97;1.45;;;4.30;99.90;;;;;;5108402;28;20036;-52
2022/12/27 08:34:29;;;;;;;2.88;1.35;;;4.40;99.90;;;;;;5087288;28;20038;-55
2022/12/27 08:36:56;;;;;;;4.57;1.48;;;4.40;99.90;;;;;;5093235;28;20107;-54
2022/12/27 08:39:21;;;;;;;7.07;1.70;;;4.40;99.90;;;;;;5108200;28;20028;-55
2022/12/27 08:41:47;;;;;;;4.95;1.50;;;4.40;99.90;;;;;;5087394;28;20054;-53
2022/12/27 08:44:12;;;;;;;3.28;1.50;;;4.40;99.90;;;;;;5108245;28;20566;-54
2022/12/27 08:46:38;;;;;;;6.65;1.70;;;4.40;99.90;;;;;;5098045;28;20034;-53
2022/12/27 08:49:04;;;;;;;3.92;1.30;;;4.40;99.90;;;;;;5089048;28;20075;-51
2022/12/27 08:51:29;;;;;;;4.45;1.30;;;4.50;99.90;;;;;;5106225;28;20115;-54
2022/12/27 08:53:55;;;;;;;5.00;1.50;;;4.50;99.90;;;;;;5089025;28;20119;-56
2022/12/27 08:56:21;;;;;;;6.32;1.80;;;4.60;99.90;;;;;;5107577;28;20523;-53
2022/12/27 08:58:49;;;;;;;7.35;2.00;;;4.60;99.90;;;;;;5092870;28;20028;-55
2022/12/27 09:01:16;;;;;;;5.78;1.90;;;4.70;99.90;;;;;;5109960;28;20023;-52
2022/12/27 09:03:41;;;;;;;5.78;1.67;;;4.60;99.90;;;;;;5112640;28;20023;-54
2022/12/27 09:06:08;;;;;;;5.07;1.50;;;4.70;99.90;;;;;;5090800;28;20534;-51
2022/12/27 09:08:34;;;;;;;7.30;1.80;;;4.60;99.90;;;;;;5112504;28;20072;-51
2022/12/27 09:11:10;;;;;;;3.58;1.77;;;4.60;99.90;;;;;;5095700;28;20506;-50
2022/12/27 09:13:35;;;;;;;5.38;1.45;;;4.60;99.90;;;;;;5112396;28;20028;-52
2022/12/27 09:16:12;;;;;;;6.22;1.70;;;4.70;99.90;;;;;;5097599;28;20035;-56
2022/12/27 09:18:39;;;;;;;5.55;1.90;;;4.60;99.90;;;;;;5084798;28;20491;-57
2022/12/27 09:21:07;;;;;;;5.85;1.77;;;4.60;99.90;;;;;;5111547;28;20031;-56
2022/12/27 09:23:33;;;;;;;9.82;1.77;;;4.70;99.90;;;;;;5088688;28;20032;-57
2022/12/27 09:26:07;;;;;;;3.10;1.73;;;4.70;99.90;;;;;;5100427;28;20123;-58
2022/12/27 09:28:33;;;;;;;9.27;2.00;;;4.70;99.90;;;;;;5084230;28;20544;-58
2022/12/27 09:30:58;;;;;;;4.65;1.85;;;4.70;99.90;;;;;;5097480;28;20028;-57
2022/12/27 09:33:24;;;;;;;7.53;2.28;;;4.70;99.90;;;;;;5100243;28;20028;-57
2022/12/27 09:35:49;;;;;;;8.63;2.00;;;4.80;99.90;;;;;;5111196;28;20027;-56
2022/12/27 09:38:15;;;;;;;7.75;1.90;;;4.90;99.90;;;;;;5096847;28;20039;-57
2022/12/27 09:40:52;;;;;;;2.92;1.85;;;5.00;99.90;;;;;;5101343;28;20385;-60
2022/12/27 09:43:20;;;;;;;6.25;2.22;;;5.10;99.90;;;;;;5085636;28;20051;-58
2022/12/27 09:45:53;;;;;;;4.07;2.15;;;5.10;99.90;;;;;;5091385;28;20601;-56
2022/12/27 09:48:37;;;;;;;5.43;1.88;;;5.20;99.90;;;;;;5108181;28;20722;-59
2022/12/27 09:51:11;;;;;;;2.67;1.52;;;5.20;99.90;;;;;;5091241;28;20043;-56
2022/12/27 09:54:01;;;;;;;7.47;1.70;;;5.20;99.90;;;;;;5093138;28;20032;-54
2022/12/27 09:56:32;;;;;;;5.60;1.70;;;5.30;99.90;;;;;;5086834;28;20088;-56
2022/12/27 09:59:08;;;;;;;4.38;1.83;;;5.30;99.90;;;;;;5086030;28;20069;-57
2022/12/27 10:01:35;;;;;;;7.80;1.75;;;5.40;99.90;;;;;;5086641;28;20032;-54
2022/12/27 10:04:02;;;;;;;5.75;2.08;;;5.50;99.90;;;;;;5094801;28;20160;-56
2022/12/27 10:06:48;;;;;;;5.43;1.60;;;5.50;99.90;;;;;;5102362;28;20019;-56
2022/12/27 10:09:41;;;;;;;7.05;1.58;;;5.60;99.90;;;;;;5091439;28;20035;-56
2022/12/27 10:12:20;;;;;;;4.80;1.70;;;5.60;99.90;;;;;;5096134;28;20479;-57
2022/12/27 10:15:15;;;;;;;5.43;1.90;;;5.60;99.90;;;;;;5098463;28;20016;-56
2022/12/27 10:17:53;;;;;;;3.42;1.52;;;5.70;99.90;;;;;;5075452;28;20065;-55
2022/12/27 10:20:47;;;;;;;4.53;2.08;;;5.70;99.90;;;;;;5110637;28;20026;-55
2022/12/27 10:23:19;;;;;;;4.35;2.55;;;5.80;99.90;;;;;;5096629;28;20100;-56
2022/12/27 10:25:46;;;;;;;9.80;1.95;;;5.80;99.90;;;;;;5096957;28;20067;-56
2022/12/27 10:28:16;;;;;;;9.77;2.25;;;5.90;99.90;;;;;;5095499;28;20531;-54
2022/12/27 10:30:43;;;;;;;6.72;2.15;;;6.00;99.90;;;;;;5089848;28;20020;-56
2022/12/27 10:33:25;;;;;;;5.60;1.80;;;6.00;99.90;;;;;;5107635;28;20523;-56
2022/12/27 10:35:51;;;;;;;7.35;2.80;;;6.00;99.90;;;;;;5069828;28;20046;-58
2022/12/27 10:38:16;;;;;;;5.05;2.47;;;6.10;99.90;;;;;;5107023;28;20598;-58
2022/12/27 10:41:01;;;;;;;8.10;2.28;;;6.10;99.90;;;;;;5090364;28;20031;-58
2022/12/27 10:43:36;;;;;;;9.02;1.90;;;6.10;99.90;;;;;;5089289;28;20534;-57
2022/12/27 10:46:12;;;;;;;7.38;2.40;;;6.20;99.90;;;;;;5069489;28;20053;-55
2022/12/27 10:48:37;;;;;;;6.47;2.25;;;6.20;99.90;;;;;;5096239;28;20036;-57
2022/12/27 10:51:08;;;;;;;5.32;1.95;;;6.10;99.90;;;;;;5109308;28;20036;-55
2022/12/27 10:53:38;;;;;;;8.18;2.30;;;6.20;99.90;;;;;;5087943;28;20031;-55
2022/12/27 10:56:05;;;;;;;10.18;2.67;;;6.20;99.90;;;;;;5109857;28;20043;-53
2022/12/27 10:58:37;;;;;;;7.32;2.75;;;6.20;99.90;;;;;;5099065;28;20062;-54
2022/12/27 11:01:03;;;;;;;13.75;2.08;;;6.20;99.40;;;;;;5089378;28;20032;-57
2022/12/27 11:03:29;;;;;;;5.10;2.30;;;6.20;99.90;;;;;;5107076;28;20023;-57
2022/12/27 11:06:02;;;;;;;5.25;1.92;;;6.30;99.90;;;;;;5086473;28;20548;-57
2022/12/27 11:08:29;;;;;;;9.63;2.53;;;6.30;99.90;;;;;;5107408;28;20038;-56
2022/12/27 11:11:21;;;;;;;6.47;2.63;;;6.30;98.40;;;;;;5089609;28;20028;-56
2022/12/27 11:13:47;;;;;;;5.13;1.95;;;6.30;98.20;;;;;;5080676;28;20043;-54
2022/12/27 11:16:21;;;;;;;7.35;2.05;;;6.30;98.20;;;;;;5108765;28;20035;-57
2022/12/27 11:18:50;;;;;;;5.15;2.03;;;6.30;99.80;;;;;;5080320;28;20316;-57
2022/12/27 11:21:17;;;;;;;9.02;2.65;;;6.30;99.90;;;;;;5109154;28;20065;-53
2022/12/27 11:23:48;;;;;;;7.22;2.20;;;6.30;99.90;;;;;;5087768;28;20020;-56
2022/12/27 11:26:25;;;;;;;5.60;2.40;;;6.30;99.90;;;;;;5068570;28;20067;-56
2022/12/27 11:28:58;;;;;;;6.70;2.20;;;6.30;99.90;;;;;;5080808;28;20040;-54
2022/12/27 11:31:30;;;;;;;6.40;1.90;;;6.30;99.90;;;;;;5109305;28;20143;-55
2022/12/27 11:34:25;;;;;;;6.43;2.60;;;6.20;99.90;;;;;;5086929;28;20063;-52
2022/12/27 11:36:53;;;;;;;9.52;2.97;;;6.30;99.90;;;;;;5068610;28;20533;-57
2022/12/27 11:39:39;;;;;;;7.35;1.98;;;6.30;99.90;;;;;;5088883;28;20111;-56
2022/12/27 11:42:12;;;;;;;4.57;2.10;;;6.40;99.90;;;;;;5108468;28;20089;-52
2022/12/27 11:44:44;;;;;;;9.52;2.58;;;6.50;99.10;;;;;;5068778;28;20259;-53
2022/12/27 11:47:29;;;;;;;3.67;1.98;;;6.60;99.90;;;;;;5068555;28;20115;-55
2022/12/27 11:50:13;;;;;;;9.10;3.05;;;6.60;99.90;;;;;;5068379;28;20039;-57
2022/12/27 11:52:58;;;;;;;10.82;2.63;;;6.60;99.90;;;;;;5074382;28;20054;-54
2022/12/27 11:55:40;;;;;;;5.43;2.13;;;6.70;98.20;;;;;;5109035;28;20030;-55
2022/12/27 11:58:22;;;;;;;4.22;1.90;;;6.70;99.70;;;;;;5081515;28;20036;-56
2022/12/27 12:01:14;;;;;;;5.72;2.00;;;6.80;98.30;;;;;;5068353;28;20032;-56
2022/12/27 12:04:09;;;;;;;6.63;2.30;;;6.80;97.60;;;;;;5099045;28;20126;-56
2022/12/27 12:07:10;;;;;;;5.10;2.00;;;6.90;96.80;;;;;;5065177;28;20082;-56
2022/12/27 12:10:00;;;;;;;6.25;1.92;;;6.90;97.60;;;;;;5086075;28;20238;-57
2022/12/27 12:12:56;;;;;;;7.53;2.08;;;6.90;96.30;;;;;;5070713;28;20055;-56
2022/12/27 12:15:59;;;;;;;6.27;2.07;;;6.90;97.40;;;;;;5108841;28;20035;-55
2022/12/27 12:19:02;;;;;;;8.30;2.03;;;6.90;94.80;;;;;;5086831;28;20028;-54
2022/12/27 12:22:17;;;;;;;8.75;2.15;;;6.90;96.40;;;;;;5088931;28;20162;-56
2022/12/27 12:25:00;;;;;;;6.90;2.00;;;6.90;96.00;;;;;;5005818;28;20029;-54
2022/12/27 12:27:49;;;;;;;4.35;2.28;;;6.90;96.20;;;;;;5082782;28;20044;-55
2022/12/27 12:30:39;;;;;;;12.48;2.92;;;6.90;97.20;;;;;;5108720;28;20583;-54
2022/12/27 12:33:21;;;;;;;6.15;2.00;;;6.90;96.30;;;;;;5085101;28;20027;-54
2022/12/27 12:36:14;;;;;;;6.68;2.22;;;6.90;98.60;;;;;;5072011;28;20037;-56
2022/12/27 12:38:51;;;;;;;4.40;2.58;;;6.90;97.50;;;;;;5089264;28;20460;-53
2022/12/27 12:41:46;;;;;;;3.47;1.90;;;6.90;97.70;;;;;;5072022;28;20029;-57
2022/12/27 12:44:29;;;;;;;8.00;2.25;;;6.80;96.40;;;;;;5086958;28;20506;-53
2022/12/27 12:47:35;;;;;;;6.82;2.45;;;6.90;97.80;;;;;;5071774;28;20025;-55
2022/12/27 12:50:42;;;;;;;7.10;3.47;;;6.90;97.70;;;;;;5071603;28;20036;-56
2022/12/27 12:53:28;;;;;;;6.57;2.42;;;6.90;96.80;;;;;;5085504;28;20041;-56
2022/12/27 12:56:19;;;;;;;7.25;2.38;;;6.80;96.60;;;;;;5071622;28;20039;-56
2022/12/27 12:59:27;;;;;;;5.28;2.03;;;6.80;98.60;;;;;;5102987;28;20084;-56
2022/12/27 13:02:19;;;;;;;7.13;1.60;;;6.80;97.00;;;;;;5071537;28;20025;-54
2022/12/27 13:05:05;;;;;;;9.15;2.22;;;6.70;96.50;;;;;;5071034;28;20101;-56
2022/12/27 13:08:14;;;;;;;7.93;1.90;;;6.70;97.30;;;;;;5110204;28;20542;-58
2022/12/27 13:11:19;;;;;;;3.40;1.60;;;6.70;98.00;;;;;;5070515;28;20044;-56
2022/12/27 13:14:00;;;;;;;6.82;2.20;;;6.70;98.20;;;;;;5094288;28;20441;-55
2022/12/27 13:16:49;;;;;;;5.00;2.15;;;6.70;97.70;;;;;;5071427;28;20061;-52
2022/12/27 13:19:48;;;;;;;7.55;1.65;;;6.70;98.30;;;;;;5086689;28;20085;-53
2022/12/27 13:22:39;;;;;;;9.48;2.13;;;6.70;98.10;;;;;;5068471;28;20029;-52
2022/12/27 13:25:27;;;;;;;7.65;2.35;;;6.70;97.70;;;;;;5108569;28;20086;-54
2022/12/27 13:28:26;;;;;;;4.40;2.13;;;6.70;96.40;;;;;;5095152;28;20035;-49
2022/12/27 13:30:58;;;;;;;8.77;2.65;;;6.60;95.30;;;;;;5070952;28;20040;-52
2022/12/27 13:34:05;;;;;;;10.82;2.47;;;6.60;97.40;;;;;;5109124;28;20505;-51
2022/12/27 13:36:56;;;;;;;7.85;2.03;;;6.50;96.80;;;;;;5071076;28;20036;-51
2022/12/27 13:39:43;;;;;;;9.73;2.35;;;6.50;96.50;;;;;;5089387;28;20370;-55
2022/12/27 13:42:24;;;;;;;6.18;1.88;;;6.50;96.00;;;;;;5069912;28;20032;-54
2022/12/27 13:45:17;;;;;;;8.85;1.90;;;6.50;95.30;;;;;;5111235;28;20024;-51
2022/12/27 13:48:09;;;;;;;6.95;1.85;;;6.50;94.00;;;;;;5077459;28;20172;-50
2022/12/27 13:51:08;;;;;;;4.40;1.73;;;6.50;95.70;;;;;;5111198;28;20081;-54
2022/12/27 13:54:04;;;;;;;6.35;2.10;;;6.50;95.60;;;;;;5091954;28;20050;-54
2022/12/27 13:56:51;;;;;;;4.97;1.92;;;6.50;96.30;;;;;;5070677;28;20032;-54
2022/12/27 13:59:52;;;;;;;5.07;2.17;;;6.40;96.50;;;;;;5089148;28;20679;-55
2022/12/27 14:02:36;;;;;;;4.82;1.90;;;6.50;96.90;;;;;;5066974;28;20037;-57
2022/12/27 14:05:20;;;;;;;14.25;2.88;;;6.50;97.10;;;;;;5100672;28;20502;-54
2022/12/27 14:08:08;;;;;;;9.45;3.10;;;6.40;95.70;;;;;;5108084;28;20487;-57
2022/12/27 14:10:47;;;;;;;7.32;2.20;;;6.40;95.70;;;;;;5109581;28;20038;-52
2022/12/27 14:13:17;;;;;;;6.88;2.83;;;6.40;96.80;;;;;;5096981;28;20510;-53
2022/12/27 14:16:00;;;;;;;8.98;2.40;;;6.40;96.10;;;;;;5090223;28;20028;-57
2022/12/27 14:18:48;;;;;;;9.07;2.60;;;6.30;97.20;;;;;;5089006;28;20055;-49
2022/12/27 14:21:52;;;;;;;6.07;2.17;;;6.30;98.00;;;;;;5070086;28;20179;-54
2022/12/27 14:24:52;;;;;;;6.70;2.83;;;6.30;97.30;;;;;;5088516;28;20078;-54
2022/12/27 14:28:02;;;;;;;9.75;2.67;;;6.30;95.90;;;;;;5069776;28;20047;-52
2022/12/27 14:30:55;;;;;;;8.75;2.70;;;6.20;95.70;;;;;;5110704;28;20023;-51
2022/12/27 14:33:40;;;;;;;9.02;3.33;;;6.20;95.90;;;;;;5087365;28;20040;-54
2022/12/27 14:36:45;;;;;;;11.07;4.57;;;6.20;96.60;;;;;;5069966;28;20028;-55
2022/12/27 14:39:56;;;;;;;12.05;3.78;;;6.20;96.10;;;;;;5088142;28;20073;-52
2022/12/27 14:42:50;;;;;;;14.07;4.13;;;6.10;97.00;;;;;;5070575;28;20419;-51
2022/12/27 14:45:55;;;;;;;6.97;3.30;;;6.10;97.30;;;;;;5110281;28;20016;-54
2022/12/27 14:48:48;;;;;;;8.85;3.10;;;6.10;97.60;;;;;;5086820;28;20035;-54
2022/12/27 14:51:49;;;;;;;5.10;2.55;;;6.00;97.80;;;;;;5069528;28;20048;-55
2022/12/27 14:54:50;;;;;;;5.63;2.20;;;6.00;97.20;;;;;;5084489;28;20392;-53
2022/12/27 14:57:28;;;;;;;3.75;1.92;;;6.00;97.20;;;;;;5068676;28;20033;-55
2022/12/27 15:00:18;;;;;;;5.20;1.60;;;5.90;98.10;;;;;;5109920;28;20028;-55
2022/12/27 15:02:55;;;;;;;5.63;2.20;;;5.90;98.00;;;;;;5071222;28;20051;-53
2022/12/27 15:05:42;;;;;;;7.20;2.00;;;5.80;98.90;;;;;;5095444;28;20040;-55
2022/12/27 15:08:49;;;;;;;4.40;2.15;;;5.80;98.60;;;;;;5082837;28;20120;-52
2022/12/27 15:11:27;;;;;;;5.63;2.67;;;5.70;99.40;;;;;;5069229;28;20040;-54
2022/12/27 15:14:18;;;;;;;7.00;2.25;;;5.70;99.90;;;;;;5087817;28;20039;-52
2022/12/27 15:16:47;;;;;;;3.50;1.95;;;5.70;99.90;;;;;;5068955;28;20035;-56
2022/12/27 15:19:39;;;;;;;4.65;2.08;;;5.60;99.90;;;;;;5089274;28;20039;-56
2022/12/27 15:22:43;;;;;;;10.27;2.83;;;5.60;99.90;;;;;;5068882;28;20131;-51